sensor_id;sensor_type;location;lat;lon;timestamp;P1;durP1;ratioP1;P2;durP2;ratioP2
8268;SDS011;4174;48.304;16.364;2023-05-07T00:01:53;6.90;;;3.30;;
8268;SDS011;4174;48.304;16.364;2023-05-07T00:07:57;8.83;;;4.07;;
8268;SDS011;4174;48.304;16.364;2023-05-07T00:14:01;7.67;;;3.47;;
8268;SDS011;4174;48.304;16.364;2023-05-07T00:20:05;8.65;;;3.53;;
8268;SDS011;4174;48.304;16.364;2023-05-07T00:26:11;7.25;;;3.37;;
8268;SDS011;4174;48.304;16.364;2023-05-07T00:32:15;7.73;;;3.33;;
8268;SDS011;4174;48.304;16.364;2023-05-07T00:38:19;6.93;;;3.10;;
8268;SDS011;4174;48.304;16.364;2023-05-07T00:44:23;7.63;;;2.63;;
8268;SDS011;4174;48.304;16.364;2023-05-07T00:50:27;7.07;;;3.30;;
8268;SDS011;4174;48.304;16.364;2023-05-07T00:56:30;7.18;;;3.40;;
8268;SDS011;4174;48.304;16.364;2023-05-07T01:02:32;6.77;;;2.80;;
8268;SDS011;4174;48.304;16.364;2023-05-07T01:08:36;7.77;;;2.70;;
8268;SDS011;4174;48.304;16.364;2023-05-07T01:14:39;7.80;;;2.80;;
8268;SDS011;4174;48.304;16.364;2023-05-07T01:20:43;6.20;;;2.60;;
8268;SDS011;4174;48.304;16.364;2023-05-07T01:26:46;8.15;;;2.87;;
8268;SDS011;4174;48.304;16.364;2023-05-07T01:32:52;8.03;;;2.70;;
8268;SDS011;4174;48.304;16.364;2023-05-07T01:38:59;6.47;;;2.50;;
8268;SDS011;4174;48.304;16.364;2023-05-07T01:45:02;6.90;;;2.70;;
8268;SDS011;4174;48.304;16.364;2023-05-07T01:51:07;7.53;;;2.92;;
8268;SDS011;4174;48.304;16.364;2023-05-07T01:57:10;6.18;;;2.70;;
8268;SDS011;4174;48.304;16.364;2023-05-07T02:03:13;7.87;;;3.03;;
8268;SDS011;4174;48.304;16.364;2023-05-07T02:09:18;7.40;;;2.90;;
8268;SDS011;4174;48.304;16.364;2023-05-07T02:15:22;6.87;;;2.85;;
8268;SDS011;4174;48.304;16.364;2023-05-07T02:21:25;7.53;;;3.10;;
8268;SDS011;4174;48.304;16.364;2023-05-07T02:27:30;6.60;;;3.10;;
8268;SDS011;4174;48.304;16.364;2023-05-07T02:33:34;7.70;;;3.33;;
8268;SDS011;4174;48.304;16.364;2023-05-07T02:39:37;7.23;;;3.17;;
8268;SDS011;4174;48.304;16.364;2023-05-07T02:45:41;9.25;;;3.90;;
8268;SDS011;4174;48.304;16.364;2023-05-07T02:51:45;7.97;;;3.90;;
8268;SDS011;4174;48.304;16.364;2023-05-07T02:57:49;9.68;;;4.50;;
8268;SDS011;4174;48.304;16.364;2023-05-07T03:03:52;8.63;;;4.10;;
8268;SDS011;4174;48.304;16.364;2023-05-07T03:09:55;9.30;;;4.43;;
8268;SDS011;4174;48.304;16.364;2023-05-07T03:15:59;11.98;;;5.12;;
8268;SDS011;4174;48.304;16.364;2023-05-07T03:22:03;10.73;;;5.40;;
8268;SDS011;4174;48.304;16.364;2023-05-07T03:28:07;12.65;;;5.60;;
8268;SDS011;4174;48.304;16.364;2023-05-07T03:34:12;11.25;;;5.72;;
8268;SDS011;4174;48.304;16.364;2023-05-07T03:40:16;11.90;;;6.00;;
8268;SDS011;4174;48.304;16.364;2023-05-07T03:46:20;12.93;;;6.53;;
8268;SDS011;4174;48.304;16.364;2023-05-07T03:52:23;13.63;;;6.70;;
8268;SDS011;4174;48.304;16.364;2023-05-07T03:58:27;14.80;;;7.03;;
8268;SDS011;4174;48.304;16.364;2023-05-07T04:04:31;14.97;;;7.83;;
8268;SDS011;4174;48.304;16.364;2023-05-07T04:10:35;16.80;;;8.60;;
8268;SDS011;4174;48.304;16.364;2023-05-07T04:16:39;18.98;;;9.20;;
8268;SDS011;4174;48.304;16.364;2023-05-07T04:22:43;16.75;;;8.85;;
8268;SDS011;4174;48.304;16.364;2023-05-07T04:28:47;19.07;;;9.17;;
8268;SDS011;4174;48.304;16.364;2023-05-07T04:34:50;21.70;;;9.50;;
8268;SDS011;4174;48.304;16.364;2023-05-07T04:40:54;19.30;;;10.00;;
8268;SDS011;4174;48.304;16.364;2023-05-07T04:46:59;20.37;;;10.38;;
8268;SDS011;4174;48.304;16.364;2023-05-07T04:53:03;19.20;;;10.32;;
8268;SDS011;4174;48.304;16.364;2023-05-07T04:59:07;21.30;;;10.80;;
8268;SDS011;4174;48.304;16.364;2023-05-07T05:05:11;18.98;;;10.43;;
8268;SDS011;4174;48.304;16.364;2023-05-07T05:11:15;21.15;;;10.90;;
8268;SDS011;4174;48.304;16.364;2023-05-07T05:17:18;23.17;;;11.60;;
8268;SDS011;4174;48.304;16.364;2023-05-07T05:23:22;22.13;;;11.73;;
8268;SDS011;4174;48.304;16.364;2023-05-07T05:29:26;22.55;;;11.50;;
8268;SDS011;4174;48.304;16.364;2023-05-07T05:35:30;21.83;;;11.70;;
8268;SDS011;4174;48.304;16.364;2023-05-07T05:41:34;21.00;;;11.03;;
8268;SDS011;4174;48.304;16.364;2023-05-07T05:47:38;20.98;;;11.07;;
8268;SDS011;4174;48.304;16.364;2023-05-07T05:53:41;20.73;;;11.30;;
8268;SDS011;4174;48.304;16.364;2023-05-07T05:59:45;20.88;;;11.25;;
8268;SDS011;4174;48.304;16.364;2023-05-07T06:05:48;21.37;;;11.40;;
8268;SDS011;4174;48.304;16.364;2023-05-07T06:11:52;20.62;;;11.10;;
8268;SDS011;4174;48.304;16.364;2023-05-07T06:17:58;19.00;;;11.05;;
8268;SDS011;4174;48.304;16.364;2023-05-07T06:30:34;19.00;;;10.97;;
8268;SDS011;4174;48.304;16.364;2023-05-07T06:36:38;18.87;;;10.77;;
8268;SDS011;4174;48.304;16.364;2023-05-07T06:42:41;18.40;;;10.30;;
8268;SDS011;4174;48.304;16.364;2023-05-07T06:48:45;19.67;;;11.27;;
8268;SDS011;4174;48.304;16.364;2023-05-07T06:54:49;18.40;;;10.50;;
8268;SDS011;4174;48.304;16.364;2023-05-07T07:00:52;20.65;;;10.85;;
8268;SDS011;4174;48.304;16.364;2023-05-07T07:06:57;19.80;;;10.88;;
8268;SDS011;4174;48.304;16.364;2023-05-07T07:13:01;20.33;;;11.02;;
8268;SDS011;4174;48.304;16.364;2023-05-07T07:19:06;19.73;;;11.00;;
8268;SDS011;4174;48.304;16.364;2023-05-07T07:25:09;23.60;;;11.38;;
8268;SDS011;4174;48.304;16.364;2023-05-07T07:31:13;21.60;;;11.50;;
8268;SDS011;4174;48.304;16.364;2023-05-07T07:37:15;20.63;;;11.53;;
8268;SDS011;4174;48.304;16.364;2023-05-07T07:43:20;21.50;;;10.90;;
8268;SDS011;4174;48.304;16.364;2023-05-07T07:49:23;20.48;;;10.73;;
8268;SDS011;4174;48.304;16.364;2023-05-07T07:55:27;18.03;;;9.40;;
8268;SDS011;4174;48.304;16.364;2023-05-07T08:01:32;17.45;;;8.77;;
8268;SDS011;4174;48.304;16.364;2023-05-07T08:07:35;15.15;;;8.27;;
8268;SDS011;4174;48.304;16.364;2023-05-07T08:13:38;17.97;;;8.53;;
8268;SDS011;4174;48.304;16.364;2023-05-07T08:19:43;15.10;;;7.95;;
8268;SDS011;4174;48.304;16.364;2023-05-07T08:25:46;15.13;;;8.05;;
8268;SDS011;4174;48.304;16.364;2023-05-07T08:31:49;15.63;;;8.30;;
8268;SDS011;4174;48.304;16.364;2023-05-07T08:37:53;12.57;;;7.22;;
8268;SDS011;4174;48.304;16.364;2023-05-07T08:43:57;14.03;;;7.10;;
8268;SDS011;4174;48.304;16.364;2023-05-07T08:50:01;13.90;;;7.67;;
8268;SDS011;4174;48.304;16.364;2023-05-07T08:56:05;13.10;;;7.07;;
8268;SDS011;4174;48.304;16.364;2023-05-07T09:02:08;14.60;;;7.80;;
8268;SDS011;4174;48.304;16.364;2023-05-07T09:08:14;13.67;;;7.47;;
8268;SDS011;4174;48.304;16.364;2023-05-07T09:14:16;13.18;;;7.70;;
8268;SDS011;4174;48.304;16.364;2023-05-07T09:20:19;13.77;;;7.50;;
8268;SDS011;4174;48.304;16.364;2023-05-07T09:26:24;14.00;;;7.37;;
8268;SDS011;4174;48.304;16.364;2023-05-07T09:32:27;13.23;;;7.43;;
8268;SDS011;4174;48.304;16.364;2023-05-07T09:38:32;12.93;;;6.90;;
8268;SDS011;4174;48.304;16.364;2023-05-07T09:44:34;12.73;;;7.10;;
8268;SDS011;4174;48.304;16.364;2023-05-07T09:50:40;13.70;;;7.10;;
8268;SDS011;4174;48.304;16.364;2023-05-07T09:56:44;13.23;;;6.87;;
8268;SDS011;4174;48.304;16.364;2023-05-07T10:02:48;13.00;;;7.18;;
8268;SDS011;4174;48.304;16.364;2023-05-07T10:08:51;13.77;;;7.33;;
8268;SDS011;4174;48.304;16.364;2023-05-07T10:14:53;13.27;;;7.30;;
8268;SDS011;4174;48.304;16.364;2023-05-07T10:20:57;14.83;;;7.90;;
8268;SDS011;4174;48.304;16.364;2023-05-07T10:27:00;15.00;;;7.73;;
8268;SDS011;4174;48.304;16.364;2023-05-07T10:33:03;13.20;;;6.82;;
8268;SDS011;4174;48.304;16.364;2023-05-07T10:39:05;12.83;;;6.97;;
8268;SDS011;4174;48.304;16.364;2023-05-07T10:45:12;12.97;;;6.97;;
8268;SDS011;4174;48.304;16.364;2023-05-07T10:51:18;12.50;;;6.22;;
8268;SDS011;4174;48.304;16.364;2023-05-07T10:57:37;12.47;;;6.57;;
8268;SDS011;4174;48.304;16.364;2023-05-07T11:10:14;11.07;;;5.82;;
8268;SDS011;4174;48.304;16.364;2023-05-07T11:16:19;10.27;;;5.60;;
8268;SDS011;4174;48.304;16.364;2023-05-07T11:22:39;11.57;;;6.20;;
8268;SDS011;4174;48.304;16.364;2023-05-07T11:28:43;10.93;;;5.50;;
8268;SDS011;4174;48.304;16.364;2023-05-07T11:34:46;12.63;;;5.47;;
8268;SDS011;4174;48.304;16.364;2023-05-07T11:40:50;11.20;;;6.00;;
8268;SDS011;4174;48.304;16.364;2023-05-07T11:46:55;10.57;;;5.67;;
8268;SDS011;4174;48.304;16.364;2023-05-07T11:52:59;11.10;;;6.00;;
8268;SDS011;4174;48.304;16.364;2023-05-07T11:59:03;10.30;;;5.45;;
8268;SDS011;4174;48.304;16.364;2023-05-07T12:05:06;10.87;;;5.23;;
8268;SDS011;4174;48.304;16.364;2023-05-07T12:11:14;9.40;;;4.87;;
8268;SDS011;4174;48.304;16.364;2023-05-07T12:17:15;9.73;;;5.00;;
8268;SDS011;4174;48.304;16.364;2023-05-07T12:23:18;10.30;;;5.20;;
8268;SDS011;4174;48.304;16.364;2023-05-07T12:29:21;9.45;;;4.68;;
8268;SDS011;4174;48.304;16.364;2023-05-07T12:35:27;10.23;;;4.93;;
8268;SDS011;4174;48.304;16.364;2023-05-07T12:41:36;9.80;;;5.03;;
8268;SDS011;4174;48.304;16.364;2023-05-07T12:47:38;7.87;;;4.20;;
8268;SDS011;4174;48.304;16.364;2023-05-07T12:53:42;9.07;;;4.30;;
8268;SDS011;4174;48.304;16.364;2023-05-07T12:59:45;8.20;;;4.10;;
8268;SDS011;4174;48.304;16.364;2023-05-07T13:05:48;10.37;;;4.30;;
8268;SDS011;4174;48.304;16.364;2023-05-07T13:11:51;8.70;;;4.30;;
8268;SDS011;4174;48.304;16.364;2023-05-07T13:17:55;8.63;;;4.40;;
8268;SDS011;4174;48.304;16.364;2023-05-07T13:23:59;8.32;;;4.07;;
8268;SDS011;4174;48.304;16.364;2023-05-07T13:30:04;8.10;;;3.90;;
8268;SDS011;4174;48.304;16.364;2023-05-07T13:36:10;8.20;;;3.70;;
8268;SDS011;4174;48.304;16.364;2023-05-07T13:42:14;7.97;;;4.03;;
8268;SDS011;4174;48.304;16.364;2023-05-07T13:48:18;8.10;;;3.75;;
8268;SDS011;4174;48.304;16.364;2023-05-07T13:54:22;7.65;;;3.50;;
8268;SDS011;4174;48.304;16.364;2023-05-07T14:00:27;7.15;;;3.20;;
8268;SDS011;4174;48.304;16.364;2023-05-07T14:06:30;7.33;;;3.50;;
8268;SDS011;4174;48.304;16.364;2023-05-07T14:12:34;7.68;;;3.55;;
8268;SDS011;4174;48.304;16.364;2023-05-07T14:18:38;8.23;;;3.45;;
8268;SDS011;4174;48.304;16.364;2023-05-07T14:24:42;7.18;;;3.28;;
8268;SDS011;4174;48.304;16.364;2023-05-07T14:30:46;6.90;;;3.20;;
8268;SDS011;4174;48.304;16.364;2023-05-07T14:36:50;10.83;;;3.30;;
8268;SDS011;4174;48.304;16.364;2023-05-07T14:42:53;6.35;;;3.00;;
8268;SDS011;4174;48.304;16.364;2023-05-07T14:48:57;8.10;;;3.20;;
8268;SDS011;4174;48.304;16.364;2023-05-07T14:55:01;8.30;;;3.20;;
8268;SDS011;4174;48.304;16.364;2023-05-07T15:01:07;6.25;;;2.90;;
8268;SDS011;4174;48.304;16.364;2023-05-07T15:07:10;7.00;;;2.97;;
8268;SDS011;4174;48.304;16.364;2023-05-07T15:13:13;6.57;;;2.87;;
8268;SDS011;4174;48.304;16.364;2023-05-07T15:19:17;6.13;;;2.87;;
8268;SDS011;4174;48.304;16.364;2023-05-07T15:25:21;6.60;;;2.80;;
8268;SDS011;4174;48.304;16.364;2023-05-07T15:31:24;5.78;;;2.70;;
8268;SDS011;4174;48.304;16.364;2023-05-07T15:37:28;5.80;;;2.60;;
8268;SDS011;4174;48.304;16.364;2023-05-07T15:43:31;6.80;;;2.70;;
8268;SDS011;4174;48.304;16.364;2023-05-07T15:49:35;6.10;;;2.70;;
8268;SDS011;4174;48.304;16.364;2023-05-07T15:55:39;7.40;;;3.00;;
8268;SDS011;4174;48.304;16.364;2023-05-07T16:01:41;8.90;;;3.00;;
8268;SDS011;4174;48.304;16.364;2023-05-07T16:07:44;6.90;;;3.30;;
8268;SDS011;4174;48.304;16.364;2023-05-07T16:13:48;7.33;;;3.27;;
8268;SDS011;4174;48.304;16.364;2023-05-07T16:19:52;8.25;;;3.80;;
8268;SDS011;4174;48.304;16.364;2023-05-07T16:25:55;9.93;;;3.70;;
8268;SDS011;4174;48.304;16.364;2023-05-07T16:32:00;6.87;;;3.45;;
8268;SDS011;4174;48.304;16.364;2023-05-07T16:38:04;7.70;;;3.50;;
8268;SDS011;4174;48.304;16.364;2023-05-07T16:44:07;8.37;;;3.80;;
8268;SDS011;4174;48.304;16.364;2023-05-07T16:50:11;8.33;;;3.80;;
8268;SDS011;4174;48.304;16.364;2023-05-07T16:56:15;8.20;;;3.92;;
8268;SDS011;4174;48.304;16.364;2023-05-07T17:02:18;9.67;;;3.80;;
8268;SDS011;4174;48.304;16.364;2023-05-07T17:08:22;8.93;;;4.00;;
8268;SDS011;4174;48.304;16.364;2023-05-07T17:14:26;9.55;;;3.72;;
8268;SDS011;4174;48.304;16.364;2023-05-07T17:33:51;8.47;;;3.87;;
8268;SDS011;4174;48.304;16.364;2023-05-07T17:47:26;7.25;;;3.65;;
8268;SDS011;4174;48.304;16.364;2023-05-07T17:53:30;7.45;;;3.60;;
8268;SDS011;4174;48.304;16.364;2023-05-07T17:59:35;7.27;;;3.80;;
8268;SDS011;4174;48.304;16.364;2023-05-07T18:05:39;7.97;;;3.70;;
8268;SDS011;4174;48.304;16.364;2023-05-07T18:11:43;7.65;;;3.50;;
8268;SDS011;4174;48.304;16.364;2023-05-07T18:17:46;8.03;;;3.80;;
8268;SDS011;4174;48.304;16.364;2023-05-07T18:23:49;8.00;;;3.97;;
8268;SDS011;4174;48.304;16.364;2023-05-07T18:29:53;8.32;;;3.60;;
8268;SDS011;4174;48.304;16.364;2023-05-07T18:35:57;10.03;;;4.00;;
8268;SDS011;4174;48.304;16.364;2023-05-07T18:42:00;8.02;;;3.90;;
8268;SDS011;4174;48.304;16.364;2023-05-07T18:48:04;8.57;;;4.03;;
8268;SDS011;4174;48.304;16.364;2023-05-07T18:54:07;8.97;;;4.33;;
8268;SDS011;4174;48.304;16.364;2023-05-07T19:00:11;9.13;;;4.50;;
8268;SDS011;4174;48.304;16.364;2023-05-07T19:06:17;8.83;;;4.30;;
8268;SDS011;4174;48.304;16.364;2023-05-07T19:12:22;9.50;;;4.53;;
8268;SDS011;4174;48.304;16.364;2023-05-07T19:18:25;10.02;;;5.18;;
8268;SDS011;4174;48.304;16.364;2023-05-07T19:24:30;11.48;;;5.22;;
8268;SDS011;4174;48.304;16.364;2023-05-07T19:30:33;11.33;;;5.63;;
8268;SDS011;4174;48.304;16.364;2023-05-07T19:36:36;11.27;;;5.53;;
8268;SDS011;4174;48.304;16.364;2023-05-07T19:42:39;11.57;;;5.80;;
8268;SDS011;4174;48.304;16.364;2023-05-07T19:48:43;11.90;;;5.80;;
8268;SDS011;4174;48.304;16.364;2023-05-07T19:54:47;12.67;;;6.40;;
8268;SDS011;4174;48.304;16.364;2023-05-07T20:00:50;12.73;;;6.55;;
8268;SDS011;4174;48.304;16.364;2023-05-07T20:06:54;14.63;;;7.13;;
8268;SDS011;4174;48.304;16.364;2023-05-07T20:12:57;15.43;;;7.53;;
8268;SDS011;4174;48.304;16.364;2023-05-07T20:19:00;15.93;;;7.97;;
8268;SDS011;4174;48.304;16.364;2023-05-07T20:25:05;16.50;;;7.93;;
8268;SDS011;4174;48.304;16.364;2023-05-07T20:31:10;16.90;;;8.40;;
8268;SDS011;4174;48.304;16.364;2023-05-07T20:37:15;17.70;;;8.57;;
8268;SDS011;4174;48.304;16.364;2023-05-07T20:43:18;16.75;;;8.60;;
8268;SDS011;4174;48.304;16.364;2023-05-07T20:49:22;18.60;;;9.07;;
8268;SDS011;4174;48.304;16.364;2023-05-07T20:55:26;19.43;;;9.60;;
8268;SDS011;4174;48.304;16.364;2023-05-07T21:01:29;18.80;;;9.50;;
8268;SDS011;4174;48.304;16.364;2023-05-07T21:07:33;20.70;;;9.90;;
8268;SDS011;4174;48.304;16.364;2023-05-07T21:13:36;19.47;;;9.77;;
8268;SDS011;4174;48.304;16.364;2023-05-07T21:19:40;19.85;;;9.88;;
8268;SDS011;4174;48.304;16.364;2023-05-07T21:25:44;21.60;;;9.97;;
8268;SDS011;4174;48.304;16.364;2023-05-07T21:31:47;21.80;;;9.83;;
8268;SDS011;4174;48.304;16.364;2023-05-07T21:37:50;19.37;;;9.90;;
8268;SDS011;4174;48.304;16.364;2023-05-07T21:43:54;21.67;;;10.77;;
8268;SDS011;4174;48.304;16.364;2023-05-07T21:49:57;22.20;;;10.30;;
8268;SDS011;4174;48.304;16.364;2023-05-07T21:56:00;21.40;;;10.57;;
8268;SDS011;4174;48.304;16.364;2023-05-07T22:02:03;22.10;;;10.48;;
8268;SDS011;4174;48.304;16.364;2023-05-07T22:08:08;23.47;;;10.63;;
8268;SDS011;4174;48.304;16.364;2023-05-07T22:14:11;22.02;;;10.73;;
8268;SDS011;4174;48.304;16.364;2023-05-07T22:20:15;21.40;;;10.43;;
8268;SDS011;4174;48.304;16.364;2023-05-07T22:26:19;21.10;;;9.90;;
8268;SDS011;4174;48.304;16.364;2023-05-07T22:32:22;18.53;;;9.07;;
8268;SDS011;4174;48.304;16.364;2023-05-07T22:38:26;19.57;;;9.23;;
8268;SDS011;4174;48.304;16.364;2023-05-07T22:44:29;16.93;;;8.57;;
8268;SDS011;4174;48.304;16.364;2023-05-07T22:50:36;17.80;;;8.30;;
8268;SDS011;4174;48.304;16.364;2023-05-07T22:56:38;15.93;;;8.18;;
8268;SDS011;4174;48.304;16.364;2023-05-07T23:02:42;16.67;;;7.90;;
8268;SDS011;4174;48.304;16.364;2023-05-07T23:08:46;15.87;;;7.80;;
8268;SDS011;4174;48.304;16.364;2023-05-07T23:14:49;25.58;;;8.10;;
8268;SDS011;4174;48.304;16.364;2023-05-07T23:20:54;16.40;;;7.80;;
8268;SDS011;4174;48.304;16.364;2023-05-07T23:26:57;16.00;;;8.03;;
8268;SDS011;4174;48.304;16.364;2023-05-07T23:33:01;16.33;;;7.67;;
8268;SDS011;4174;48.304;16.364;2023-05-07T23:39:05;17.02;;;8.50;;
8268;SDS011;4174;48.304;16.364;2023-05-07T23:45:09;14.53;;;7.30;;
8268;SDS011;4174;48.304;16.364;2023-05-07T23:51:14;14.77;;;7.40;;
8268;SDS011;4174;48.304;16.364;2023-05-07T23:57:18;14.35;;;7.18;;
